createdAt,value
2022-11-01T00:01:36.216Z,8.52
2022-11-01T00:04:05.774Z,10.32
2022-11-01T00:06:33.479Z,8.15
2022-11-01T00:09:01.226Z,8.88
2022-11-01T00:11:29.084Z,8.20
2022-11-01T00:13:56.786Z,9.82
2022-11-01T00:16:24.746Z,8.35
2022-11-01T00:18:52.544Z,8.23
2022-11-01T00:21:22.071Z,10.38
2022-11-01T00:23:49.859Z,10.90
2022-11-01T00:26:19.463Z,6.53
2022-11-01T00:28:47.463Z,9.07
2022-11-01T00:31:16.558Z,7.68
2022-11-01T00:33:44.592Z,10.20
2022-11-01T00:36:12.788Z,7.57
2022-11-01T00:38:41.966Z,7.75
2022-11-01T00:41:09.825Z,10.07
2022-11-01T00:43:37.693Z,10.80
2022-11-01T00:46:05.699Z,9.32
2022-11-01T00:48:33.400Z,10.35
2022-11-01T00:51:01.312Z,10.10
2022-11-01T00:53:28.972Z,6.35
2022-11-01T00:56:02.604Z,9.82
2022-11-01T00:58:30.507Z,11.65
2022-11-01T01:00:58.244Z,7.28
2022-11-01T01:03:26.136Z,10.68
2022-11-01T01:05:55.084Z,7.60
2022-11-01T01:08:23.587Z,10.40
2022-11-01T01:10:51.798Z,6.78
2022-11-01T01:13:22.090Z,8.63
2022-11-01T01:15:49.878Z,10.98
2022-11-01T01:18:18.050Z,10.65
2022-11-01T01:20:46.082Z,13.52
2022-11-01T01:23:13.816Z,7.53
2022-11-01T01:25:42.244Z,9.57
2022-11-01T01:28:10.257Z,10.43
2022-11-01T01:30:42.411Z,10.05
2022-11-01T01:35:42.951Z,9.05
2022-11-01T01:38:10.594Z,10.23
2022-11-01T01:40:38.262Z,6.50
2022-11-01T01:43:05.961Z,8.25
2022-11-01T01:45:37.430Z,10.65
2022-11-01T01:48:13.237Z,9.88
2022-11-01T01:50:45.869Z,8.57
2022-11-01T01:53:18.771Z,9.82
2022-11-01T01:55:51.661Z,11.05
2022-11-01T01:58:23.517Z,5.57
2022-11-01T02:00:51.922Z,8.88
2022-11-01T02:03:23.626Z,8.05
2022-11-01T02:05:55.949Z,7.35
2022-11-01T02:08:28.232Z,7.97
2022-11-01T02:10:57.995Z,7.30
2022-11-01T02:13:25.672Z,6.03
2022-11-01T02:16:16.140Z,9.48
2022-11-01T02:18:49.137Z,11.77
2022-11-01T02:21:52.265Z,7.05
2022-11-01T02:25:03.655Z,5.03
2022-11-01T02:27:43.207Z,8.00
2022-11-01T02:30:16.967Z,8.18
2022-11-01T02:33:12.196Z,8.00
2022-11-01T02:35:56.625Z,8.15
2022-11-01T02:38:29.362Z,7.80
2022-11-01T02:41:04.640Z,9.63
2022-11-01T02:43:47.912Z,4.85
2022-11-01T02:46:34.864Z,8.23
2022-11-01T02:49:04.906Z,6.75
2022-11-01T02:51:35.075Z,9.20
2022-11-01T02:54:06.601Z,7.18
2022-11-01T02:56:34.485Z,5.22
2022-11-01T02:59:02.713Z,7.78
2022-11-01T03:01:34.473Z,5.53
2022-11-01T03:04:04.358Z,5.15
2022-11-01T03:06:36.654Z,10.20
2022-11-01T03:09:08.148Z,5.45
2022-11-01T03:11:47.434Z,10.35
2022-11-01T03:14:25.224Z,7.85
2022-11-01T03:17:00.384Z,7.60
2022-11-01T03:19:38.886Z,5.90
2022-11-01T03:22:12.095Z,15.68
2022-11-01T03:24:46.913Z,7.38
2022-11-01T03:27:20.677Z,6.28
2022-11-01T03:29:56.777Z,7.97
2022-11-01T03:32:28.695Z,7.93
2022-11-01T03:35:00.511Z,7.22
2022-11-01T03:37:30.744Z,8.27
2022-11-01T03:40:03.711Z,9.30
2022-11-01T03:42:33.397Z,9.70
2022-11-01T03:45:07.615Z,3.97
2022-11-01T03:47:36.503Z,4.97
2022-11-01T03:50:18.330Z,4.75
2022-11-01T03:52:46.734Z,3.67
2022-11-01T03:55:20.785Z,6.93
2022-11-01T03:57:49.850Z,10.57
2022-11-01T04:00:19.387Z,8.73
2022-11-01T04:02:47.069Z,3.30
2022-11-01T04:05:16.350Z,3.70
2022-11-01T04:07:44.732Z,5.03
2022-11-01T04:10:13.582Z,4.75
2022-11-01T04:12:41.663Z,2.55
2022-11-01T04:15:28.208Z,4.30
2022-11-01T04:18:24.713Z,3.83
2022-11-01T04:20:54.297Z,5.78
2022-11-01T04:23:22.105Z,4.75
2022-11-01T04:25:49.758Z,2.70
2022-11-01T04:28:17.423Z,1.92
2022-11-01T04:30:45.089Z,4.30
2022-11-01T04:33:12.726Z,5.13
2022-11-01T04:35:40.430Z,5.60
2022-11-01T04:38:11.655Z,3.80
2022-11-01T04:40:39.532Z,5.40
2022-11-01T04:43:07.191Z,4.28
2022-11-01T04:45:34.927Z,2.13
2022-11-01T04:48:04.410Z,3.88
2022-11-01T04:50:32.300Z,2.72
2022-11-01T04:53:00.661Z,5.70
2022-11-01T04:55:30.030Z,2.47
2022-11-01T04:57:57.959Z,4.70
2022-11-01T05:00:26.639Z,3.85
2022-11-01T05:03:01.577Z,1.77
2022-11-01T05:05:29.762Z,2.63
2022-11-01T05:10:36.562Z,3.78
2022-11-01T05:13:04.899Z,4.80
2022-11-01T05:15:33.132Z,2.33
2022-11-01T05:18:01.887Z,3.55
2022-11-01T05:20:30.540Z,3.10
2022-11-01T05:23:00.397Z,3.20
2022-11-01T05:25:30.499Z,2.95
2022-11-01T05:28:05.055Z,1.98
2022-11-01T05:30:32.919Z,3.22
2022-11-01T05:33:01.547Z,3.13
2022-11-01T05:35:30.458Z,4.53
2022-11-01T05:37:58.723Z,4.47
2022-11-01T05:40:26.596Z,7.65
2022-11-01T05:42:54.421Z,2.55
2022-11-01T05:45:23.413Z,1.67
2022-11-01T05:47:51.083Z,2.40
2022-11-01T05:50:18.915Z,1.98
2022-11-01T05:52:46.587Z,6.45
2022-11-01T05:55:14.301Z,4.95
2022-11-01T05:57:42.018Z,2.35
2022-11-01T06:00:10.876Z,8.57
2022-11-01T06:02:40.075Z,2.22
2022-11-01T06:05:08.788Z,5.68
2022-11-01T06:07:37.416Z,12.93
2022-11-01T06:10:06.361Z,2.33
2022-11-01T06:12:34.022Z,1.67
2022-11-01T06:15:01.757Z,3.28
2022-11-01T06:17:29.380Z,4.03
2022-11-01T06:19:58.391Z,4.80
2022-11-01T06:22:26.126Z,2.88
2022-11-01T06:24:53.798Z,3.03
2022-11-01T06:27:21.506Z,3.28
2022-11-01T06:29:49.217Z,4.25
2022-11-01T06:32:16.837Z,2.78
2022-11-01T06:34:45.091Z,3.50
2022-11-01T06:37:14.207Z,4.10
2022-11-01T06:39:41.865Z,3.80
2022-11-01T06:42:10.246Z,2.63
2022-11-01T06:44:37.948Z,3.67
2022-11-01T06:47:05.617Z,4.15
2022-11-01T06:49:33.315Z,4.30
2022-11-01T06:52:01.092Z,5.13
2022-11-01T06:54:30.135Z,2.58
2022-11-01T06:56:57.961Z,4.20
2022-11-01T06:59:25.758Z,5.43
2022-11-01T07:01:53.794Z,4.00
2022-11-01T07:04:22.213Z,3.92
2022-11-01T07:06:50.038Z,3.72
2022-11-01T07:09:17.736Z,6.55
2022-11-01T07:11:46.779Z,4.43
2022-11-01T07:14:14.707Z,3.05
2022-11-01T07:16:42.378Z,4.45
2022-11-01T07:19:10.180Z,8.65
2022-11-01T07:21:38.166Z,8.60
2022-11-01T07:24:06.647Z,10.27
2022-11-01T07:26:34.330Z,5.32
2022-11-01T07:29:03.589Z,4.32
2022-11-01T07:31:33.264Z,2.55
2022-11-01T07:34:00.952Z,3.47
2022-11-01T07:36:28.664Z,6.20
2022-11-01T07:38:56.364Z,3.75
2022-11-01T07:41:24.068Z,5.47
2022-11-01T07:43:51.708Z,6.95
2022-11-01T07:46:20.717Z,6.05
2022-11-01T07:48:48.400Z,5.32
2022-11-01T07:51:16.041Z,7.18
2022-11-01T07:53:43.769Z,7.18
2022-11-01T07:56:11.468Z,8.30
2022-11-01T07:58:43.305Z,2.92
2022-11-01T08:01:11.441Z,3.90
2022-11-01T08:03:40.832Z,8.93
2022-11-01T08:06:09.116Z,7.32
2022-11-01T08:08:38.064Z,6.68
2022-11-01T08:11:06.212Z,5.43
2022-11-01T08:13:34.170Z,8.02
2022-11-01T08:16:03.182Z,9.63
2022-11-01T08:18:30.993Z,7.95
2022-11-01T08:21:00.572Z,8.38
2022-11-01T08:23:28.324Z,7.00
2022-11-01T08:25:58.028Z,8.80
2022-11-01T08:28:28.477Z,6.88
2022-11-01T08:30:56.138Z,7.80
2022-11-01T08:33:23.908Z,7.28
2022-11-01T08:35:51.621Z,6.70
2022-11-01T08:38:20.680Z,8.75
2022-11-01T08:40:49.038Z,8.98
2022-11-01T08:43:16.759Z,6.70
2022-11-01T08:45:44.612Z,9.65
2022-11-01T08:48:12.324Z,9.60
2022-11-01T08:50:40.371Z,7.95
2022-11-01T08:53:09.686Z,9.13
2022-11-01T08:55:39.022Z,8.07
2022-11-01T08:58:07.363Z,6.07
2022-11-01T09:00:35.118Z,4.38
2022-11-01T09:03:02.804Z,10.02
2022-11-01T09:05:31.507Z,7.60
2022-11-01T09:08:00.287Z,7.82
2022-11-01T09:10:29.176Z,6.78
2022-11-01T09:12:58.489Z,8.30
2022-11-01T09:15:26.343Z,10.88
2022-11-01T09:17:54.282Z,6.18
2022-11-01T09:20:22.085Z,8.93
2022-11-01T09:22:52.311Z,8.10
2022-11-01T09:25:20.136Z,6.10
2022-11-01T09:27:47.785Z,10.52
2022-11-01T09:30:17.209Z,6.88
2022-11-01T09:32:44.915Z,7.28
2022-11-01T09:35:12.603Z,10.75
2022-11-01T09:37:40.277Z,7.25
2022-11-01T09:40:10.430Z,9.13
2022-11-01T09:42:42.557Z,8.82
2022-11-01T09:45:17.873Z,12.07
2022-11-01T09:47:48.893Z,7.78
2022-11-01T09:50:22.455Z,9.80
2022-11-01T09:52:50.798Z,6.43
2022-11-01T09:55:24.021Z,7.68
2022-11-01T09:57:58.994Z,8.60
2022-11-01T10:00:35.889Z,11.40
2022-11-01T10:03:30.077Z,8.35
2022-11-01T10:06:07.850Z,10.93
2022-11-01T10:08:44.011Z,12.85
2022-11-01T10:11:26.296Z,7.40
2022-11-01T10:14:01.029Z,5.95
2022-11-01T10:16:36.307Z,10.63
2022-11-01T10:19:06.157Z,5.22
2022-11-01T10:21:42.952Z,11.23
2022-11-01T10:24:21.921Z,8.27
2022-11-01T10:26:55.189Z,7.85
2022-11-01T10:29:28.839Z,10.70
2022-11-01T10:31:59.571Z,9.65
2022-11-01T10:34:34.934Z,8.10
2022-11-01T10:37:15.485Z,6.32
2022-11-01T10:39:55.497Z,12.48
2022-11-01T10:42:24.699Z,13.63
2022-11-01T10:44:55.698Z,7.78
2022-11-01T10:47:26.144Z,8.90
2022-11-01T10:50:06.967Z,6.00
2022-11-01T10:52:46.019Z,9.80
2022-11-01T10:55:19.119Z,6.53
2022-11-01T10:57:52.209Z,9.52
2022-11-01T11:00:21.829Z,9.88
2022-11-01T11:02:55.318Z,8.70
2022-11-01T11:05:25.227Z,6.50
2022-11-01T11:07:53.031Z,11.98
2022-11-01T11:10:24.903Z,13.23
2022-11-01T11:12:56.950Z,10.10
2022-11-01T11:15:35.587Z,14.10
2022-11-01T11:18:09.746Z,9.75
2022-11-01T11:20:37.904Z,9.45
2022-11-01T11:23:12.915Z,8.65
2022-11-01T11:25:42.938Z,7.13
2022-11-01T11:28:21.909Z,6.93
2022-11-01T11:30:49.638Z,5.97
2022-11-01T11:33:20.107Z,8.80
2022-11-01T11:35:56.327Z,8.00
2022-11-01T11:38:42.905Z,9.60
2022-11-01T11:41:12.276Z,9.23
2022-11-01T11:43:41.818Z,11.38
2022-11-01T11:46:19.109Z,8.80
2022-11-01T11:48:53.102Z,8.45
2022-11-01T11:51:21.777Z,8.02
2022-11-01T11:54:17.525Z,10.13
2022-11-01T11:56:46.145Z,10.25
2022-11-01T11:59:22.308Z,7.65
2022-11-01T12:01:50.138Z,9.05
2022-11-01T12:04:21.253Z,13.98
2022-11-01T12:06:49.111Z,8.18
2022-11-01T12:09:43.039Z,7.43
2022-11-01T12:12:18.223Z,7.15
2022-11-01T12:14:46.094Z,8.88
2022-11-01T12:17:33.141Z,13.15
2022-11-01T12:20:11.346Z,9.85
2022-11-01T12:22:42.417Z,7.22
2022-11-01T12:25:17.066Z,7.95
2022-11-01T12:27:52.516Z,14.38
2022-11-01T12:30:22.550Z,9.10
2022-11-01T12:32:53.414Z,9.80
2022-11-01T12:35:29.975Z,6.65
2022-11-01T12:38:11.886Z,5.18
2022-11-01T12:40:43.349Z,6.88
2022-11-01T12:43:16.187Z,8.57
2022-11-01T12:45:51.116Z,7.35
2022-11-01T12:48:28.150Z,8.57
2022-11-01T12:51:01.289Z,7.78
2022-11-01T12:53:35.090Z,11.15
2022-11-01T12:56:02.827Z,5.65
2022-11-01T12:58:33.617Z,4.18
2022-11-01T13:01:20.681Z,8.15
2022-11-01T13:03:56.733Z,8.35
2022-11-01T13:06:47.340Z,7.18
2022-11-01T13:09:23.929Z,10.55
2022-11-01T13:14:38.465Z,8.73
2022-11-01T13:17:12.456Z,4.93
2022-11-01T13:19:48.322Z,6.93
2022-11-01T13:22:22.684Z,9.25
2022-11-01T13:24:58.191Z,5.07
2022-11-01T13:27:30.888Z,5.97
2022-11-01T13:30:03.111Z,6.30
2022-11-01T13:32:36.835Z,4.85
2022-11-01T13:35:33.278Z,5.22
2022-11-01T13:38:08.018Z,5.95
2022-11-01T13:40:42.079Z,4.55
2022-11-01T13:43:13.544Z,9.38
2022-11-01T13:46:08.797Z,6.47
2022-11-01T13:48:53.826Z,6.30
2022-11-01T13:51:36.697Z,7.82
2022-11-01T13:54:12.167Z,4.85
2022-11-01T13:56:43.800Z,5.30
2022-11-01T13:59:15.286Z,7.55
2022-11-01T14:01:43.220Z,8.57
2022-11-01T14:04:47.858Z,8.45
2022-11-01T14:07:17.400Z,8.35
2022-11-01T14:09:50.566Z,8.57
2022-11-01T14:12:33.376Z,6.82
2022-11-01T14:15:22.307Z,6.63
2022-11-01T14:18:04.066Z,4.07
2022-11-01T14:20:58.933Z,6.72
2022-11-01T14:24:03.353Z,7.63
2022-11-01T14:26:47.709Z,3.63
2022-11-01T14:29:16.076Z,7.93
2022-11-01T14:31:47.099Z,6.63
2022-11-01T14:34:25.487Z,5.07
2022-11-01T14:36:55.037Z,6.47
2022-11-01T14:39:31.405Z,6.57
2022-11-01T14:42:03.073Z,8.82
2022-11-01T14:44:35.556Z,4.55
2022-11-01T14:47:09.654Z,6.15
2022-11-01T14:49:43.723Z,6.65
2022-11-01T14:52:17.053Z,5.30
2022-11-01T14:54:51.228Z,15.68
2022-11-01T14:57:28.341Z,5.40
2022-11-01T14:59:58.123Z,4.03
2022-11-01T15:02:27.627Z,7.72
2022-11-01T15:04:59.418Z,6.25
2022-11-01T15:07:31.328Z,6.82
2022-11-01T15:10:01.311Z,8.55
2022-11-01T15:12:34.517Z,5.88
2022-11-01T15:15:03.090Z,6.93
2022-11-01T15:17:35.296Z,5.75
2022-11-01T15:20:13.046Z,9.20
2022-11-01T15:22:42.953Z,5.80
2022-11-01T15:25:21.498Z,9.35
2022-11-01T15:27:51.707Z,8.25
2022-11-01T15:30:25.228Z,4.65
2022-11-01T15:32:54.881Z,9.50
2022-11-01T15:35:25.583Z,10.32
2022-11-01T15:37:55.199Z,7.20
2022-11-01T15:40:29.237Z,7.28
2022-11-01T15:42:58.943Z,6.78
2022-11-01T15:45:30.658Z,5.53
2022-11-01T15:48:01.496Z,6.63
2022-11-01T15:50:38.392Z,8.07
2022-11-01T15:53:11.083Z,6.70
2022-11-01T15:55:43.719Z,9.02
2022-11-01T15:58:18.683Z,6.38
2022-11-01T16:00:49.036Z,117.13
2022-11-01T16:03:22.097Z,227.02
2022-11-01T16:05:56.848Z,288.65
2022-11-01T16:10:57.436Z,173.57
2022-11-01T16:13:26.641Z,138.40
2022-11-01T16:16:03.003Z,138.68
2022-11-01T16:18:34.606Z,121.38
2022-11-01T16:21:04.143Z,102.68
2022-11-01T16:23:32.412Z,104.30
2022-11-01T16:26:08.505Z,97.97
2022-11-01T16:28:43.229Z,82.28
2022-11-01T16:31:30.802Z,78.85
2022-11-01T16:33:58.829Z,70.65
2022-11-01T16:36:35.683Z,63.85
2022-11-01T16:39:03.598Z,54.97
2022-11-01T16:41:37.873Z,53.72
2022-11-01T16:44:15.830Z,48.55
2022-11-01T16:46:44.260Z,38.58
2022-11-01T16:49:21.065Z,32.28
2022-11-01T16:51:48.784Z,33.25
2022-11-01T16:54:16.473Z,27.77
2022-11-01T16:56:47.972Z,30.45
2022-11-01T16:59:38.120Z,25.02
2022-11-01T17:02:16.697Z,20.30
2022-11-01T17:04:46.160Z,21.90
2022-11-01T17:07:13.944Z,21.67
2022-11-01T17:09:41.797Z,22.73
2022-11-01T17:12:11.374Z,17.95
2022-11-01T17:17:17.072Z,28.83
2022-11-01T17:19:47.581Z,19.05
2022-11-01T17:22:20.708Z,17.70
2022-11-01T17:24:49.064Z,19.38
2022-11-01T17:27:18.602Z,21.33
2022-11-01T17:29:47.659Z,20.80
2022-11-01T17:32:15.366Z,16.05
2022-11-01T17:34:42.983Z,17.25
2022-11-01T17:37:16.962Z,14.40
2022-11-01T17:39:44.753Z,15.27
2022-11-01T17:42:12.492Z,12.38
2022-11-01T17:44:40.149Z,14.65
2022-11-01T17:47:09.916Z,14.20
2022-11-01T17:49:37.576Z,13.85
2022-11-01T17:52:05.541Z,14.98
2022-11-01T17:54:33.442Z,11.25
2022-11-01T17:57:01.172Z,11.38
2022-11-01T17:59:28.824Z,15.98
2022-11-01T18:01:56.637Z,9.60
2022-11-01T18:04:25.866Z,7.78
2022-11-01T18:06:53.578Z,9.93
2022-11-01T18:09:24.544Z,10.90
2022-11-01T18:12:00.568Z,10.30
2022-11-01T18:14:43.794Z,11.70
2022-11-01T18:17:28.566Z,7.68
2022-11-01T18:20:06.705Z,12.18
2022-11-01T18:22:44.843Z,11.43
2022-11-01T18:25:25.360Z,10.57
2022-11-01T18:27:56.272Z,9.65
2022-11-01T18:30:24.361Z,8.88
2022-11-01T18:32:56.335Z,7.35
2022-11-01T18:35:32.696Z,12.13
2022-11-01T18:38:23.506Z,8.75
2022-11-01T18:41:00.344Z,11.23
2022-11-01T18:43:30.143Z,9.60
2022-11-01T18:46:23.839Z,12.23
2022-11-01T18:48:45.583Z,9.65
2022-11-01T18:51:21.477Z,8.15
2022-11-01T18:53:51.862Z,9.88
2022-11-01T18:56:22.161Z,6.55
2022-11-01T18:58:52.311Z,7.65
2022-11-01T19:01:21.605Z,10.80
2022-11-01T19:03:59.903Z,6.95
2022-11-01T19:06:29.818Z,7.10
2022-11-01T19:08:59.424Z,8.75
2022-11-01T19:11:28.304Z,5.82
2022-11-01T19:13:59.264Z,9.30
2022-11-01T19:16:27.184Z,8.30
2022-11-01T19:18:54.908Z,9.27
2022-11-01T19:21:25.174Z,6.50
2022-11-01T19:23:55.753Z,11.15
2022-11-01T19:26:31.870Z,8.65
2022-11-01T19:28:59.561Z,8.35
2022-11-01T19:31:30.496Z,6.40
2022-11-01T19:34:00.444Z,5.13
2022-11-01T19:39:23.065Z,7.85
2022-11-01T19:41:52.205Z,7.10
2022-11-01T19:44:21.427Z,8.25
2022-11-01T19:46:52.230Z,7.78
2022-11-01T19:49:24.722Z,9.95
2022-11-01T19:52:15.529Z,8.55
2022-11-01T19:54:48.445Z,7.90
2022-11-01T19:57:28.856Z,8.23
2022-11-01T20:00:15.270Z,9.23
2022-11-01T20:02:43.070Z,7.28
2022-11-01T20:05:26.705Z,9.65
2022-11-01T20:08:01.537Z,5.47
2022-11-01T20:10:30.846Z,6.28
2022-11-01T20:12:58.515Z,13.35
2022-11-01T20:15:26.185Z,7.88
2022-11-01T20:17:53.941Z,7.63
2022-11-01T20:20:21.635Z,10.43
2022-11-01T20:22:55.000Z,7.18
2022-11-01T20:25:35.483Z,8.95
2022-11-01T20:28:03.416Z,5.45
2022-11-01T20:30:31.591Z,5.28
2022-11-01T20:32:59.246Z,8.05
2022-11-01T20:35:26.921Z,6.55
2022-11-01T20:37:54.587Z,8.80
2022-11-01T20:40:24.977Z,6.20
2022-11-01T20:42:54.382Z,6.45
2022-11-01T20:45:22.052Z,8.02
2022-11-01T20:47:49.938Z,7.65
2022-11-01T20:50:19.333Z,8.10
2022-11-01T20:52:49.419Z,9.95
2022-11-01T20:55:17.281Z,8.63
2022-11-01T20:57:44.975Z,11.38
2022-11-01T21:00:18.073Z,7.38
2022-11-01T21:02:45.882Z,6.10
2022-11-01T21:05:21.949Z,9.27
2022-11-01T21:07:50.072Z,11.48
2022-11-01T21:10:32.591Z,10.32
2022-11-01T21:13:02.202Z,13.57
2022-11-01T21:15:36.515Z,7.78
2022-11-01T21:18:33.711Z,5.22
2022-11-01T21:21:25.050Z,7.13
2022-11-01T21:23:52.792Z,7.55
2022-11-01T21:26:22.193Z,5.47
2022-11-01T21:28:51.654Z,8.88
2022-11-01T21:31:31.483Z,13.07
2022-11-01T21:34:02.974Z,5.88
2022-11-01T21:36:34.795Z,6.53
2022-11-01T21:39:04.459Z,9.40
2022-11-01T21:41:39.996Z,8.93
2022-11-01T21:44:22.501Z,6.53
2022-11-01T21:46:52.818Z,7.45
2022-11-01T21:49:30.985Z,8.18
2022-11-01T21:52:00.573Z,5.70
2022-11-01T21:54:29.406Z,9.82
2022-11-01T21:56:57.811Z,7.78
2022-11-01T21:59:26.092Z,5.35
2022-11-01T22:01:56.367Z,12.52
2022-11-01T22:04:28.651Z,8.32
2022-11-01T22:06:57.224Z,9.82
2022-11-01T22:09:24.976Z,7.43
2022-11-01T22:11:52.759Z,7.22
2022-11-01T22:14:20.532Z,8.70
2022-11-01T22:16:48.213Z,5.72
2022-11-01T22:19:17.233Z,7.38
2022-11-01T22:24:13.565Z,6.35
2022-11-01T22:26:42.373Z,9.88
2022-11-01T22:29:10.045Z,11.70
2022-11-01T22:31:37.713Z,6.90
2022-11-01T22:34:05.412Z,10.80
2022-11-01T22:36:36.696Z,6.53
2022-11-01T22:39:13.919Z,5.72
2022-11-01T22:41:42.396Z,13.25
2022-11-01T22:44:14.337Z,6.90
2022-11-01T22:46:47.852Z,12.00
2022-11-01T22:49:19.952Z,6.85
2022-11-01T22:51:51.481Z,11.77
2022-11-01T22:54:33.096Z,7.13
2022-11-01T22:57:04.198Z,8.23
2022-11-01T22:59:35.735Z,8.43
2022-11-01T23:02:24.789Z,6.63
2022-11-01T23:04:58.841Z,10.02
2022-11-01T23:07:34.172Z,10.35
2022-11-01T23:10:06.106Z,7.75
2022-11-01T23:12:54.682Z,11.27
2022-11-01T23:15:28.921Z,6.88
2022-11-01T23:18:02.994Z,8.25
2022-11-01T23:20:30.823Z,6.93
2022-11-01T23:23:00.143Z,8.82
2022-11-01T23:25:27.908Z,10.88
2022-11-01T23:27:55.606Z,7.13
2022-11-01T23:30:23.277Z,4.32
2022-11-01T23:32:50.924Z,9.88
2022-11-01T23:35:21.554Z,7.53
2022-11-01T23:37:50.740Z,9.25
2022-11-01T23:40:22.212Z,8.57
2022-11-01T23:42:50.312Z,5.97
2022-11-01T23:45:26.249Z,8.63
2022-11-01T23:47:54.032Z,6.45
2022-11-01T23:50:26.702Z,8.85
2022-11-01T23:52:57.223Z,8.50
2022-11-01T23:55:29.513Z,8.30
2022-11-01T23:57:59.797Z,8.23
